createdAt,value
2018-07-25T00:00:28.432Z,4.10
2018-07-25T00:02:57.480Z,3.37
2018-07-25T00:05:26.589Z,3.40
2018-07-25T00:07:55.792Z,3.53
2018-07-25T00:10:29.079Z,3.37
2018-07-25T00:12:59.132Z,3.27
2018-07-25T00:15:28.214Z,3.00
2018-07-25T00:17:58.066Z,3.67
2018-07-25T00:20:27.186Z,3.80
2018-07-25T00:22:56.230Z,4.00
2018-07-25T00:25:25.330Z,4.80
2018-07-25T00:27:54.129Z,3.77
2018-07-25T00:30:23.062Z,3.43
2018-07-25T00:32:52.126Z,2.93
2018-07-25T00:35:21.226Z,3.13
2018-07-25T00:37:50.292Z,3.40
2018-07-25T00:40:19.118Z,4.43
2018-07-25T00:42:48.367Z,4.63
2018-07-25T00:45:17.458Z,4.13
2018-07-25T00:47:47.215Z,3.80
2018-07-25T00:50:16.328Z,3.30
2018-07-25T00:52:45.418Z,3.77
2018-07-25T00:55:14.497Z,3.10
2018-07-25T00:57:43.634Z,3.33
2018-07-25T01:00:12.675Z,3.43
2018-07-25T01:02:41.824Z,3.30
2018-07-25T01:05:10.946Z,3.50
2018-07-25T01:07:39.732Z,3.33
2018-07-25T01:10:08.731Z,3.63
2018-07-25T01:12:37.804Z,3.70
2018-07-25T01:15:08.050Z,3.40
2018-07-25T01:17:37.034Z,3.53
2018-07-25T01:20:06.490Z,3.70
2018-07-25T01:22:35.513Z,3.63
2018-07-25T01:25:04.827Z,3.93
2018-07-25T01:27:33.916Z,3.73
2018-07-25T01:30:02.751Z,3.67
2018-07-25T01:32:31.700Z,3.90
2018-07-25T01:35:00.817Z,3.87
2018-07-25T01:37:29.896Z,4.17
2018-07-25T01:39:58.938Z,3.47
2018-07-25T01:42:28.026Z,3.70
2018-07-25T01:44:57.144Z,4.10
2018-07-25T01:47:26.228Z,3.90
2018-07-25T01:49:55.353Z,4.53
2018-07-25T01:52:24.461Z,3.80
2018-07-25T01:54:53.355Z,4.50
2018-07-25T01:57:22.362Z,3.63
2018-07-25T01:59:51.421Z,4.47
2018-07-25T02:02:20.523Z,5.10
2018-07-25T02:04:49.541Z,4.57
2018-07-25T02:07:18.621Z,4.70
2018-07-25T02:09:48.024Z,4.67
2018-07-25T02:12:17.078Z,4.77
2018-07-25T02:14:46.163Z,4.60
2018-07-25T02:17:15.258Z,4.23
2018-07-25T02:19:44.315Z,3.90
2018-07-25T02:22:13.360Z,4.33
2018-07-25T02:24:42.430Z,4.37
2018-07-25T02:27:11.568Z,4.07
2018-07-25T02:29:40.370Z,3.83
2018-07-25T02:32:09.394Z,3.87
2018-07-25T02:34:38.447Z,3.80
2018-07-25T02:37:07.486Z,3.70
2018-07-25T02:39:36.608Z,4.20
2018-07-25T02:42:05.690Z,4.97
2018-07-25T02:44:34.771Z,5.50
2018-07-25T02:47:03.855Z,7.27
2018-07-25T02:49:32.897Z,16.33
2018-07-25T02:52:02.001Z,10.43
2018-07-25T02:54:31.149Z,7.30
2018-07-25T02:57:00.390Z,5.00
2018-07-25T02:59:29.122Z,4.40
2018-07-25T03:01:57.845Z,4.37
2018-07-25T03:04:26.879Z,4.30
2018-07-25T03:06:55.719Z,4.13
2018-07-25T03:09:24.706Z,4.13
2018-07-25T03:11:53.818Z,4.00
2018-07-25T03:14:22.947Z,4.20
2018-07-25T03:16:51.926Z,4.20
2018-07-25T03:19:20.861Z,4.40
2018-07-25T03:21:49.682Z,4.30
2018-07-25T03:24:18.631Z,4.60
2018-07-25T03:26:47.687Z,4.23
2018-07-25T03:29:16.738Z,3.50
2018-07-25T03:31:45.870Z,3.97
2018-07-25T03:34:14.944Z,3.90
2018-07-25T03:36:43.970Z,3.73
2018-07-25T03:39:13.065Z,3.83
2018-07-25T03:41:41.944Z,3.13
2018-07-25T03:44:10.902Z,4.27
2018-07-25T03:46:39.946Z,4.27
2018-07-25T03:49:08.846Z,3.87
2018-07-25T03:51:37.772Z,3.80
2018-07-25T03:54:06.826Z,4.30
2018-07-25T03:56:35.747Z,3.77
2018-07-25T03:59:04.452Z,3.50
2018-07-25T04:01:33.452Z,4.27
2018-07-25T04:04:02.580Z,3.90
2018-07-25T04:06:32.043Z,3.70
2018-07-25T04:09:01.692Z,3.40
2018-07-25T04:11:30.785Z,4.30
2018-07-25T04:13:59.874Z,5.10
2018-07-25T04:16:29.052Z,4.70
2018-07-25T04:18:58.156Z,4.80
2018-07-25T04:21:27.271Z,5.03
2018-07-25T04:23:56.122Z,4.87
2018-07-25T04:26:25.053Z,4.50
2018-07-25T04:28:54.181Z,4.17
2018-07-25T04:31:23.181Z,4.40
2018-07-25T04:33:52.237Z,4.00
2018-07-25T04:36:21.135Z,4.47
2018-07-25T04:38:50.117Z,4.13
2018-07-25T04:41:18.970Z,4.07
2018-07-25T04:43:47.887Z,3.43
2018-07-25T04:46:16.985Z,3.87
2018-07-25T04:48:46.023Z,3.53
2018-07-25T04:51:15.128Z,3.70
2018-07-25T04:53:44.746Z,3.90
2018-07-25T04:56:13.994Z,3.70
2018-07-25T04:58:43.141Z,3.70
2018-07-25T05:01:12.223Z,3.60
2018-07-25T05:03:41.275Z,3.73
2018-07-25T05:06:10.153Z,4.57
2018-07-25T05:08:39.107Z,4.27
2018-07-25T05:11:08.187Z,4.20
2018-07-25T05:13:37.340Z,3.80
2018-07-25T05:16:06.647Z,4.13
2018-07-25T05:18:35.637Z,3.93
2018-07-25T05:21:04.500Z,4.20
2018-07-25T05:23:33.514Z,4.20
2018-07-25T05:26:03.507Z,4.40
2018-07-25T05:28:32.682Z,3.70
2018-07-25T05:31:01.802Z,4.13
2018-07-25T05:33:30.918Z,3.90
2018-07-25T05:35:59.734Z,4.37
2018-07-25T05:38:28.518Z,3.90
2018-07-25T05:40:57.243Z,4.30
2018-07-25T05:43:26.181Z,4.13
2018-07-25T05:45:55.048Z,4.47
2018-07-25T05:48:23.986Z,4.67
2018-07-25T05:50:53.832Z,4.27
2018-07-25T05:53:23.028Z,4.53
2018-07-25T05:55:52.115Z,4.37
2018-07-25T05:58:21.192Z,4.20
2018-07-25T06:00:50.486Z,4.20
2018-07-25T06:03:19.685Z,4.17
2018-07-25T06:05:48.759Z,4.90
2018-07-25T06:08:17.938Z,5.17
2018-07-25T06:10:46.719Z,4.40
2018-07-25T06:13:15.816Z,4.30
2018-07-25T06:15:44.962Z,4.07
2018-07-25T06:18:14.071Z,4.00
2018-07-25T06:20:43.174Z,4.00
2018-07-25T06:23:12.404Z,4.47
2018-07-25T06:25:41.185Z,4.50
2018-07-25T06:28:10.157Z,3.93
2018-07-25T06:30:39.274Z,3.80
2018-07-25T06:33:08.493Z,4.03
2018-07-25T06:35:37.613Z,4.10
2018-07-25T06:38:06.708Z,4.93
2018-07-25T06:40:35.886Z,3.90
2018-07-25T06:43:05.008Z,3.90
2018-07-25T06:45:34.074Z,3.70
2018-07-25T06:48:03.164Z,3.87
2018-07-25T06:50:32.326Z,3.67
2018-07-25T06:53:01.385Z,3.37
2018-07-25T06:55:30.480Z,4.00
2018-07-25T06:57:59.625Z,5.00
2018-07-25T07:00:29.269Z,4.00
2018-07-25T07:02:58.268Z,3.90
2018-07-25T07:05:27.506Z,3.53
2018-07-25T07:07:56.387Z,4.37
2018-07-25T07:10:25.443Z,3.90
2018-07-25T07:12:55.135Z,3.80
2018-07-25T07:15:24.247Z,3.43
2018-07-25T07:17:53.382Z,3.70
2018-07-25T07:20:22.568Z,3.53
2018-07-25T07:22:51.632Z,3.73
2018-07-25T07:25:20.803Z,5.10
2018-07-25T07:27:49.706Z,3.20
2018-07-25T07:30:18.398Z,3.30
2018-07-25T07:32:47.156Z,4.03
2018-07-25T07:35:16.134Z,5.43
2018-07-25T07:37:45.316Z,3.53
2018-07-25T07:40:14.383Z,3.47
2018-07-25T07:42:43.509Z,3.00
2018-07-25T07:45:12.585Z,5.53
2018-07-25T07:47:41.788Z,2.97
2018-07-25T07:50:11.017Z,2.80
2018-07-25T07:52:41.565Z,3.30
2018-07-25T07:55:11.318Z,3.20
2018-07-25T07:57:40.377Z,3.17
2018-07-25T08:03:20.695Z,3.00
2018-07-25T08:08:47.632Z,2.60
2018-07-25T08:11:18.636Z,2.90
2018-07-25T08:13:59.760Z,2.80
2018-07-25T08:16:28.882Z,3.10
2018-07-25T08:18:58.032Z,2.50
2018-07-25T08:21:27.107Z,2.30
2018-07-25T08:23:55.918Z,2.50
2018-07-25T08:26:24.779Z,2.53
2018-07-25T08:29:44.088Z,2.37
2018-07-25T08:32:14.279Z,2.60
2018-07-25T08:34:43.100Z,2.23
2018-07-25T08:37:12.227Z,2.93
2018-07-25T08:39:41.364Z,2.67
2018-07-25T08:42:10.536Z,2.70
2018-07-25T08:44:39.715Z,2.90
2018-07-25T08:50:07.606Z,3.00
2018-07-25T08:52:36.911Z,2.23
2018-07-25T08:55:06.522Z,2.70
2018-07-25T08:57:35.378Z,2.67
2018-07-25T09:00:05.051Z,2.70
2018-07-25T09:02:34.666Z,2.57
2018-07-25T09:05:03.790Z,2.10
2018-07-25T09:07:33.316Z,2.73
2018-07-25T09:10:02.357Z,2.20
2018-07-25T09:15:29.125Z,2.43
2018-07-25T09:17:58.460Z,2.40
2018-07-25T09:20:27.502Z,2.20
2018-07-25T09:22:56.712Z,2.27
2018-07-25T09:25:25.821Z,2.50
2018-07-25T09:27:55.326Z,2.17
2018-07-25T09:30:24.568Z,2.10
2018-07-25T09:32:54.162Z,1.97
2018-07-25T09:35:23.151Z,2.20
2018-07-25T09:37:52.216Z,2.20
2018-07-25T09:40:21.281Z,2.27
2018-07-25T09:42:50.381Z,2.20
2018-07-25T09:45:19.526Z,2.17
2018-07-25T09:47:48.349Z,1.90
2018-07-25T09:50:17.538Z,2.17
2018-07-25T09:52:46.810Z,2.57
2018-07-25T09:55:16.034Z,2.10
2018-07-25T09:57:45.302Z,2.13
2018-07-25T10:00:18.687Z,2.97
2018-07-25T10:02:48.096Z,2.40
2018-07-25T10:05:17.232Z,2.40
2018-07-25T10:07:46.514Z,2.37
2018-07-25T10:10:15.497Z,2.60
2018-07-25T10:12:44.460Z,2.30
2018-07-25T10:15:13.598Z,2.80
2018-07-25T10:17:42.683Z,3.37
2018-07-25T10:20:11.672Z,2.40
2018-07-25T10:22:40.545Z,2.77
2018-07-25T10:25:09.375Z,2.43
2018-07-25T10:27:38.070Z,2.77
2018-07-25T10:30:07.323Z,2.50
2018-07-25T10:32:36.483Z,1.97
2018-07-25T10:35:05.615Z,2.43
2018-07-25T10:37:34.562Z,2.60
2018-07-25T10:40:04.135Z,2.30
2018-07-25T10:45:47.724Z,2.17
2018-07-25T10:48:16.464Z,2.20
2018-07-25T10:50:45.484Z,2.30
2018-07-25T10:53:15.484Z,2.23
2018-07-25T10:55:44.873Z,2.10
2018-07-25T10:58:13.765Z,2.20
2018-07-25T11:00:42.779Z,2.50
2018-07-25T11:03:11.895Z,2.50
2018-07-25T11:05:41.031Z,2.23
2018-07-25T11:08:10.152Z,2.77
2018-07-25T11:10:39.281Z,2.50
2018-07-25T11:13:08.412Z,2.47
2018-07-25T11:15:37.589Z,2.40
2018-07-25T11:18:06.806Z,2.60
2018-07-25T11:20:36.107Z,2.40
2018-07-25T11:23:05.376Z,2.80
2018-07-25T11:25:34.461Z,3.13
2018-07-25T11:28:03.596Z,2.37
2018-07-25T11:30:32.429Z,2.93
2018-07-25T11:33:01.213Z,2.80
2018-07-25T11:35:30.434Z,3.50
2018-07-25T11:37:59.523Z,3.50
2018-07-25T11:40:28.835Z,2.57
2018-07-25T11:42:57.999Z,2.10
2018-07-25T11:45:27.101Z,2.30
2018-07-25T11:47:56.225Z,2.00
2018-07-25T11:50:25.667Z,2.60
2018-07-25T11:52:54.569Z,2.30
2018-07-25T11:55:23.599Z,2.60
2018-07-25T11:57:52.684Z,2.70
2018-07-25T12:00:21.840Z,2.47
2018-07-25T12:02:51.279Z,2.60
2018-07-25T12:05:20.887Z,2.20
2018-07-25T12:07:49.940Z,2.20
2018-07-25T12:10:18.874Z,2.13
2018-07-25T12:12:47.796Z,2.73
2018-07-25T12:15:17.002Z,2.43
2018-07-25T12:17:46.322Z,2.37
2018-07-25T12:20:15.240Z,2.20
2018-07-25T12:22:44.469Z,2.20
2018-07-25T12:25:13.408Z,2.00
2018-07-25T12:27:42.301Z,2.30
2018-07-25T12:30:11.421Z,2.30
2018-07-25T12:32:40.712Z,2.30
2018-07-25T12:35:09.813Z,2.40
2018-07-25T12:37:38.921Z,2.70
2018-07-25T12:40:08.352Z,2.30
2018-07-25T12:42:38.166Z,2.80
2018-07-25T12:45:07.034Z,2.60
2018-07-25T12:47:36.081Z,2.60
2018-07-25T12:50:05.258Z,2.80
2018-07-25T12:52:34.508Z,2.63
2018-07-25T12:55:03.710Z,2.60
2018-07-25T12:57:32.863Z,2.80
2018-07-25T13:00:02.019Z,2.33
2018-07-25T13:02:31.102Z,2.70
2018-07-25T13:05:00.287Z,2.73
2018-07-25T13:07:29.390Z,2.80
2018-07-25T13:09:58.506Z,2.47
2018-07-25T13:12:27.616Z,2.80
2018-07-25T13:14:56.596Z,2.50
2018-07-25T13:17:25.596Z,2.53
2018-07-25T13:19:54.616Z,2.80
2018-07-25T13:22:23.407Z,2.93
2018-07-25T13:24:52.171Z,2.80
2018-07-25T13:27:21.127Z,2.80
2018-07-25T13:29:50.207Z,2.60
2018-07-25T13:32:19.391Z,2.60
2018-07-25T13:34:48.470Z,2.77
2018-07-25T13:37:17.667Z,2.60
2018-07-25T13:39:46.967Z,2.87
2018-07-25T13:42:16.115Z,2.97
2018-07-25T13:44:45.148Z,2.60
2018-07-25T13:47:14.387Z,2.83
2018-07-25T13:49:43.499Z,2.80
2018-07-25T13:52:12.582Z,2.77
2018-07-25T13:54:41.910Z,2.50
2018-07-25T13:57:10.827Z,2.73
2018-07-25T13:59:39.939Z,2.80
2018-07-25T14:02:09.009Z,2.70
2018-07-25T14:04:38.084Z,2.93
2018-07-25T14:07:07.998Z,3.07
2018-07-25T14:09:37.071Z,2.90
2018-07-25T14:12:06.197Z,2.30
2018-07-25T14:14:35.270Z,3.10
2018-07-25T14:17:04.400Z,2.70
2018-07-25T14:19:33.508Z,2.80
2018-07-25T14:22:02.817Z,2.63
2018-07-25T14:24:32.039Z,3.50
2018-07-25T14:27:01.112Z,3.27
2018-07-25T14:29:30.250Z,2.87
2018-07-25T14:31:59.349Z,3.40
2018-07-25T14:34:28.406Z,3.10
2018-07-25T14:36:57.498Z,2.60
2018-07-25T14:39:26.721Z,3.00
2018-07-25T14:41:55.849Z,3.10
2018-07-25T14:44:25.007Z,2.67
2018-07-25T14:46:54.236Z,2.60
2018-07-25T14:49:23.282Z,2.30
2018-07-25T14:51:52.394Z,2.60
2018-07-25T14:54:21.276Z,2.50
2018-07-25T14:56:50.234Z,2.60
2018-07-25T14:59:19.075Z,3.00
2018-07-25T15:01:48.089Z,2.90
2018-07-25T15:04:17.224Z,3.23
2018-07-25T15:06:46.480Z,3.13
2018-07-25T15:09:15.772Z,2.83
2018-07-25T15:11:44.649Z,3.07
2018-07-25T15:14:13.574Z,2.70
2018-07-25T15:16:42.675Z,2.33
2018-07-25T15:19:11.742Z,2.60
2018-07-25T15:21:40.637Z,3.80
2018-07-25T15:24:09.709Z,2.90
2018-07-25T15:26:38.813Z,3.30
2018-07-25T15:29:07.692Z,3.87
2018-07-25T15:31:36.635Z,3.17
2018-07-25T15:34:05.801Z,2.93
2018-07-25T15:36:40.067Z,3.00
2018-07-25T15:39:12.579Z,2.67
2018-07-25T15:41:42.293Z,2.93
2018-07-25T15:44:11.284Z,2.80
2018-07-25T15:46:40.458Z,3.17
2018-07-25T15:49:09.446Z,2.47
2018-07-25T15:51:39.195Z,2.50
2018-07-25T15:54:08.627Z,2.60
2018-07-25T15:56:38.361Z,2.80
2018-07-25T15:59:08.019Z,3.00
2018-07-25T16:01:37.137Z,2.60
2018-07-25T16:04:06.337Z,2.70
2018-07-25T16:06:35.480Z,2.77
2018-07-25T16:09:07.507Z,2.77
2018-07-25T16:11:36.825Z,2.40
2018-07-25T16:14:05.895Z,2.60
2018-07-25T16:16:34.990Z,2.67
2018-07-25T16:19:04.133Z,2.60
2018-07-25T16:21:33.212Z,2.97
2018-07-25T16:24:02.328Z,2.40
2018-07-25T16:26:31.415Z,2.37
2018-07-25T16:29:01.400Z,2.97
2018-07-25T16:31:30.359Z,2.90
2018-07-25T16:33:59.483Z,3.10
2018-07-25T16:36:28.597Z,3.10
2018-07-25T16:38:58.628Z,3.57
2018-07-25T16:41:27.584Z,2.57
2018-07-25T16:43:56.967Z,4.40
2018-07-25T16:46:26.241Z,2.30
2018-07-25T16:48:56.097Z,2.53
2018-07-25T16:51:25.248Z,3.90
2018-07-25T16:53:54.661Z,2.80
2018-07-25T16:56:23.929Z,6.07
2018-07-25T16:58:53.111Z,3.17
2018-07-25T17:01:22.347Z,2.80
2018-07-25T17:03:51.560Z,3.47
2018-07-25T17:06:20.814Z,2.67
2018-07-25T17:08:49.989Z,2.60
2018-07-25T17:11:19.050Z,3.00
2018-07-25T17:13:48.164Z,2.60
2018-07-25T17:16:17.617Z,2.93
2018-07-25T17:18:46.707Z,2.70
2018-07-25T17:21:15.841Z,3.30
2018-07-25T17:23:45.062Z,4.27
2018-07-25T17:26:14.711Z,3.13
2018-07-25T17:28:44.310Z,3.10
2018-07-25T17:31:13.640Z,2.70
2018-07-25T17:33:42.723Z,3.27
2018-07-25T17:36:12.675Z,2.60
2018-07-25T17:38:41.720Z,3.20
2018-07-25T17:41:10.810Z,2.90
2018-07-25T17:43:39.792Z,2.47
2018-07-25T17:46:08.822Z,3.20
2018-07-25T17:48:38.188Z,2.63
2018-07-25T17:51:07.297Z,2.70
2018-07-25T17:53:36.610Z,3.07
2018-07-25T17:56:05.802Z,3.40
2018-07-25T17:58:35.942Z,3.13
2018-07-25T18:01:05.945Z,3.10
2018-07-25T18:03:35.229Z,4.47
2018-07-25T18:06:05.161Z,2.70
2018-07-25T18:08:34.773Z,2.90
2018-07-25T18:11:03.905Z,2.70
2018-07-25T18:13:39.042Z,2.83
2018-07-25T18:16:08.630Z,3.20
2018-07-25T18:18:38.078Z,3.00
2018-07-25T18:21:08.164Z,3.07
2018-07-25T18:23:37.322Z,2.93
2018-07-25T18:26:06.619Z,2.80
2018-07-25T18:28:36.744Z,2.87
2018-07-25T18:31:06.190Z,3.20
2018-07-25T18:33:35.284Z,2.73
2018-07-25T18:36:04.306Z,2.87
2018-07-25T18:38:34.361Z,2.73
2018-07-25T18:41:04.154Z,2.63
2018-07-25T18:43:33.268Z,3.67
2018-07-25T18:46:02.394Z,2.80
2018-07-25T18:48:32.306Z,3.50
2018-07-25T18:51:01.749Z,3.40
2018-07-25T18:53:31.727Z,3.17
2018-07-25T18:56:02.236Z,3.03
2018-07-25T18:58:31.319Z,2.90
2018-07-25T19:01:00.758Z,3.00
2018-07-25T19:03:30.026Z,3.07
2018-07-25T19:06:07.416Z,3.00
2018-07-25T19:08:37.905Z,3.13
2018-07-25T19:11:07.043Z,3.00
2018-07-25T19:13:36.863Z,3.43
2018-07-25T19:16:06.554Z,2.90
2018-07-25T19:18:36.018Z,3.10
2018-07-25T19:21:05.350Z,3.40
2018-07-25T19:23:34.378Z,2.87
2018-07-25T19:26:03.514Z,4.17
2018-07-25T19:28:32.831Z,4.00
2018-07-25T19:31:01.991Z,3.30
2018-07-25T19:33:30.814Z,3.67
2018-07-25T19:35:59.991Z,3.20
2018-07-25T19:38:29.810Z,4.13
2018-07-25T19:41:00.331Z,2.90
2018-07-25T19:43:29.609Z,3.50
2018-07-25T19:45:58.778Z,3.40
2018-07-25T19:48:27.972Z,3.60
2018-07-25T19:50:58.359Z,3.70
2018-07-25T19:53:28.089Z,3.60
2018-07-25T19:55:57.301Z,3.33
2018-07-25T19:58:27.329Z,3.47
2018-07-25T20:00:57.640Z,3.10
2018-07-25T20:03:28.203Z,3.60
2018-07-25T20:05:58.421Z,3.33
2018-07-25T20:08:27.549Z,3.90
2018-07-25T20:10:57.011Z,3.83
2018-07-25T20:13:30.444Z,3.70
2018-07-25T20:16:00.868Z,4.57
2018-07-25T20:18:30.768Z,4.80
2018-07-25T20:20:59.865Z,4.87
2018-07-25T20:23:28.912Z,4.10
2018-07-25T20:25:58.089Z,3.40
2018-07-25T20:28:27.214Z,3.63
2018-07-25T20:30:56.792Z,3.20
2018-07-25T20:33:26.149Z,3.60
2018-07-25T20:35:55.855Z,3.00
2018-07-25T20:38:25.019Z,3.13
2018-07-25T20:40:54.102Z,3.37
2018-07-25T20:43:23.251Z,3.20
2018-07-25T20:45:52.414Z,3.00
2018-07-25T20:48:22.484Z,3.40
2018-07-25T20:50:52.786Z,3.57
2018-07-25T20:53:22.111Z,3.10
2018-07-25T20:55:51.273Z,2.87
2018-07-25T20:58:20.489Z,2.97
2018-07-25T21:00:49.960Z,3.20
2018-07-25T21:03:19.095Z,3.00
2018-07-25T21:05:48.208Z,2.80
2018-07-25T21:08:17.330Z,3.30
2018-07-25T21:10:46.621Z,3.10
2018-07-25T21:13:15.865Z,3.10
2018-07-25T21:15:45.071Z,3.10
2018-07-25T21:18:15.114Z,2.87
2018-07-25T21:20:44.177Z,3.10
2018-07-25T21:23:13.280Z,3.10
2018-07-25T21:25:42.431Z,3.23
2018-07-25T21:28:11.527Z,2.83
2018-07-25T21:30:40.564Z,2.93
2018-07-25T21:33:09.694Z,2.80
2018-07-25T21:35:38.743Z,2.87
2018-07-25T21:38:07.858Z,3.27
2018-07-25T21:40:36.697Z,3.30
2018-07-25T21:43:05.952Z,3.40
2018-07-25T21:45:35.056Z,3.40
2018-07-25T21:48:04.164Z,3.27
2018-07-25T21:50:33.293Z,2.83
2018-07-25T21:53:02.371Z,3.17
2018-07-25T21:55:31.451Z,3.30
2018-07-25T21:58:00.585Z,3.10
2018-07-25T22:00:30.302Z,3.20
2018-07-25T22:02:59.448Z,3.27
2018-07-25T22:05:28.547Z,3.00
2018-07-25T22:07:57.660Z,3.27
2018-07-25T22:10:27.237Z,2.93
2018-07-25T22:12:56.350Z,3.67
2018-07-25T22:15:25.199Z,3.57
2018-07-25T22:17:54.163Z,3.90
2018-07-25T22:20:23.240Z,3.30
2018-07-25T22:22:52.018Z,3.07
2018-07-25T22:25:20.946Z,3.73
2018-07-25T22:27:49.977Z,3.23
2018-07-25T22:30:19.170Z,3.60
2018-07-25T22:32:48.338Z,2.90
2018-07-25T22:35:17.518Z,2.90
2018-07-25T22:37:46.631Z,3.30
2018-07-25T22:40:15.859Z,3.10
2018-07-25T22:42:44.943Z,3.00
2018-07-25T22:45:14.042Z,3.07
2018-07-25T22:47:43.200Z,2.80
2018-07-25T22:50:12.339Z,3.23
2018-07-25T22:52:41.458Z,3.60
2018-07-25T22:55:10.319Z,3.80
2018-07-25T22:57:39.663Z,3.43
2018-07-25T23:00:08.466Z,3.57
2018-07-25T23:02:37.191Z,3.37
2018-07-25T23:05:06.190Z,3.30
2018-07-25T23:07:35.349Z,3.00
2018-07-25T23:10:04.755Z,3.40
2018-07-25T23:12:33.865Z,3.43
2018-07-25T23:15:02.973Z,3.80
2018-07-25T23:17:32.106Z,3.20
2018-07-25T23:20:01.040Z,3.43
2018-07-25T23:22:30.755Z,3.77
2018-07-25T23:24:59.703Z,3.20
2018-07-25T23:27:28.521Z,3.60
2018-07-25T23:29:57.478Z,3.57
2018-07-25T23:32:27.255Z,3.57
2018-07-25T23:34:56.336Z,3.67
2018-07-25T23:37:25.424Z,3.63
2018-07-25T23:39:54.511Z,3.60
2018-07-25T23:42:23.585Z,3.67
2018-07-25T23:44:53.084Z,3.93
2018-07-25T23:47:22.147Z,3.80
2018-07-25T23:49:51.331Z,3.20
2018-07-25T23:52:20.267Z,3.57
2018-07-25T23:54:49.316Z,3.70
2018-07-25T23:57:18.442Z,3.53
2018-07-25T23:59:47.564Z,3.43
